sensor_id;sensor_type;location;lat;lon;timestamp;P1;durP1;ratioP1;P2;durP2;ratioP2
2476;SDS011;1249;51.270;6.756;2023-05-10T00:01:08;6.63;;;6.03;;
2476;SDS011;1249;51.270;6.756;2023-05-10T00:03:33;7.73;;;6.83;;
2476;SDS011;1249;51.270;6.756;2023-05-10T00:05:59;6.40;;;5.80;;
2476;SDS011;1249;51.270;6.756;2023-05-10T00:08:24;7.40;;;6.43;;
2476;SDS011;1249;51.270;6.756;2023-05-10T00:10:50;8.37;;;7.13;;
2476;SDS011;1249;51.270;6.756;2023-05-10T00:13:15;8.10;;;7.30;;
2476;SDS011;1249;51.270;6.756;2023-05-10T00:15:41;7.77;;;7.00;;
2476;SDS011;1249;51.270;6.756;2023-05-10T00:18:07;8.00;;;7.10;;
2476;SDS011;1249;51.270;6.756;2023-05-10T00:20:32;7.73;;;7.03;;
2476;SDS011;1249;51.270;6.756;2023-05-10T00:22:58;8.17;;;7.20;;
2476;SDS011;1249;51.270;6.756;2023-05-10T00:25:23;7.60;;;6.80;;
2476;SDS011;1249;51.270;6.756;2023-05-10T00:27:49;8.77;;;7.70;;
2476;SDS011;1249;51.270;6.756;2023-05-10T00:30:16;8.60;;;7.70;;
2476;SDS011;1249;51.270;6.756;2023-05-10T00:32:41;10.20;;;6.90;;
2476;SDS011;1249;51.270;6.756;2023-05-10T00:35:08;9.00;;;7.70;;
2476;SDS011;1249;51.270;6.756;2023-05-10T00:37:33;8.40;;;7.13;;
2476;SDS011;1249;51.270;6.756;2023-05-10T00:39:59;7.80;;;6.40;;
2476;SDS011;1249;51.270;6.756;2023-05-10T00:42:24;6.20;;;5.60;;
2476;SDS011;1249;51.270;6.756;2023-05-10T00:44:50;6.77;;;5.27;;
2476;SDS011;1249;51.270;6.756;2023-05-10T00:47:16;6.20;;;5.57;;
2476;SDS011;1249;51.270;6.756;2023-05-10T00:49:42;7.87;;;5.03;;
2476;SDS011;1249;51.270;6.756;2023-05-10T00:52:08;5.80;;;5.20;;
2476;SDS011;1249;51.270;6.756;2023-05-10T00:54:34;5.87;;;4.90;;
2476;SDS011;1249;51.270;6.756;2023-05-10T00:57:00;6.70;;;5.43;;
2476;SDS011;1249;51.270;6.756;2023-05-10T00:59:26;5.73;;;5.17;;
2476;SDS011;1249;51.270;6.756;2023-05-10T01:01:52;7.63;;;5.57;;
2476;SDS011;1249;51.270;6.756;2023-05-10T01:04:18;7.30;;;5.30;;
2476;SDS011;1249;51.270;6.756;2023-05-10T01:06:45;7.00;;;5.70;;
2476;SDS011;1249;51.270;6.756;2023-05-10T01:09:10;6.67;;;6.00;;
2476;SDS011;1249;51.270;6.756;2023-05-10T01:11:37;7.70;;;5.93;;
2476;SDS011;1249;51.270;6.756;2023-05-10T01:14:04;6.90;;;6.20;;
2476;SDS011;1249;51.270;6.756;2023-05-10T01:16:32;10.10;;;7.30;;
2476;SDS011;1249;51.270;6.756;2023-05-10T01:19:03;9.80;;;7.13;;
2476;SDS011;1249;51.270;6.756;2023-05-10T01:24:34;7.30;;;6.53;;
2476;SDS011;1249;51.270;6.756;2023-05-10T01:38:15;7.07;;;5.83;;
2476;SDS011;1249;51.270;6.756;2023-05-10T01:40:50;5.47;;;4.87;;
2476;SDS011;1249;51.270;6.756;2023-05-10T01:43:28;6.60;;;5.93;;
2476;SDS011;1249;51.270;6.756;2023-05-10T01:46:02;5.80;;;5.20;;
2476;SDS011;1249;51.270;6.756;2023-05-10T01:48:36;6.83;;;5.90;;
2476;SDS011;1249;51.270;6.756;2023-05-10T01:51:05;6.60;;;6.00;;
2476;SDS011;1249;51.270;6.756;2023-05-10T01:53:33;5.70;;;5.13;;
2476;SDS011;1249;51.270;6.756;2023-05-10T01:56:02;7.40;;;6.47;;
2476;SDS011;1249;51.270;6.756;2023-05-10T01:58:30;8.13;;;6.33;;
2476;SDS011;1249;51.270;6.756;2023-05-10T02:00:58;7.43;;;6.70;;
2476;SDS011;1249;51.270;6.756;2023-05-10T02:03:26;6.77;;;6.07;;
2476;SDS011;1249;51.270;6.756;2023-05-10T02:05:53;8.30;;;6.60;;
2476;SDS011;1249;51.270;6.756;2023-05-10T02:08:21;6.50;;;5.80;;
2476;SDS011;1249;51.270;6.756;2023-05-10T02:10:49;6.70;;;6.03;;
2476;SDS011;1249;51.270;6.756;2023-05-10T02:13:16;7.73;;;6.10;;
2476;SDS011;1249;51.270;6.756;2023-05-10T02:15:43;8.47;;;7.67;;
2476;SDS011;1249;51.270;6.756;2023-05-10T02:18:12;8.20;;;7.00;;
2476;SDS011;1249;51.270;6.756;2023-05-10T02:20:40;7.67;;;6.87;;
2476;SDS011;1249;51.270;6.756;2023-05-10T02:23:08;9.63;;;8.10;;
2476;SDS011;1249;51.270;6.756;2023-05-10T02:25:34;7.33;;;6.63;;
2476;SDS011;1249;51.270;6.756;2023-05-10T02:28:03;7.90;;;6.13;;
2476;SDS011;1249;51.270;6.756;2023-05-10T02:30:31;7.90;;;7.10;;
2476;SDS011;1249;51.270;6.756;2023-05-10T02:32:58;6.80;;;6.10;;
2476;SDS011;1249;51.270;6.756;2023-05-10T02:35:25;8.03;;;7.00;;
2476;SDS011;1249;51.270;6.756;2023-05-10T02:37:52;7.23;;;5.93;;
2476;SDS011;1249;51.270;6.756;2023-05-10T02:40:18;7.00;;;6.30;;
2476;SDS011;1249;51.270;6.756;2023-05-10T02:42:46;12.73;;;6.43;;
2476;SDS011;1249;51.270;6.756;2023-05-10T02:45:15;6.50;;;5.80;;
2476;SDS011;1249;51.270;6.756;2023-05-10T02:47:45;8.63;;;6.30;;
2476;SDS011;1249;51.270;6.756;2023-05-10T02:50:10;6.53;;;5.80;;
2476;SDS011;1249;51.270;6.756;2023-05-10T02:52:43;6.27;;;5.67;;
2476;SDS011;1249;51.270;6.756;2023-05-10T02:55:13;7.03;;;5.73;;
2476;SDS011;1249;51.270;6.756;2023-05-10T02:57:43;7.20;;;6.00;;
2476;SDS011;1249;51.270;6.756;2023-05-10T03:00:13;7.33;;;5.50;;
2476;SDS011;1249;51.270;6.756;2023-05-10T03:02:39;7.10;;;6.50;;
2476;SDS011;1249;51.270;6.756;2023-05-10T03:05:04;6.67;;;5.43;;
2476;SDS011;1249;51.270;6.756;2023-05-10T03:07:30;6.80;;;5.47;;
2476;SDS011;1249;51.270;6.756;2023-05-10T03:09:57;6.40;;;5.33;;
2476;SDS011;1249;51.270;6.756;2023-05-10T03:15:28;6.60;;;5.60;;
2476;SDS011;1249;51.270;6.756;2023-05-10T03:18:22;6.20;;;5.60;;
2476;SDS011;1249;51.270;6.756;2023-05-10T03:20:57;6.77;;;5.67;;
2476;SDS011;1249;51.270;6.756;2023-05-10T03:23:30;7.87;;;5.27;;
2476;SDS011;1249;51.270;6.756;2023-05-10T03:26:05;8.33;;;5.70;;
2476;SDS011;1249;51.270;6.756;2023-05-10T03:28:32;9.43;;;6.10;;
2476;SDS011;1249;51.270;6.756;2023-05-10T03:31:00;7.10;;;6.40;;
2476;SDS011;1249;51.270;6.756;2023-05-10T03:33:26;6.00;;;5.40;;
2476;SDS011;1249;51.270;6.756;2023-05-10T03:35:52;4.93;;;4.53;;
2476;SDS011;1249;51.270;6.756;2023-05-10T03:38:18;5.90;;;5.40;;
2476;SDS011;1249;51.270;6.756;2023-05-10T03:40:43;7.63;;;5.90;;
2476;SDS011;1249;51.270;6.756;2023-05-10T03:43:09;7.33;;;6.00;;
2476;SDS011;1249;51.270;6.756;2023-05-10T03:45:34;7.90;;;5.73;;
2476;SDS011;1249;51.270;6.756;2023-05-10T03:48:02;9.33;;;5.93;;
2476;SDS011;1249;51.270;6.756;2023-05-10T03:50:28;7.00;;;5.43;;
2476;SDS011;1249;51.270;6.756;2023-05-10T03:52:53;5.27;;;4.70;;
2476;SDS011;1249;51.270;6.756;2023-05-10T03:55:19;6.10;;;5.20;;
2476;SDS011;1249;51.270;6.756;2023-05-10T03:57:45;5.67;;;5.10;;
2476;SDS011;1249;51.270;6.756;2023-05-10T04:00:10;9.17;;;6.10;;
2476;SDS011;1249;51.270;6.756;2023-05-10T04:02:36;7.13;;;6.33;;
2476;SDS011;1249;51.270;6.756;2023-05-10T04:05:02;7.93;;;5.63;;
2476;SDS011;1249;51.270;6.756;2023-05-10T04:07:28;9.23;;;6.70;;
2476;SDS011;1249;51.270;6.756;2023-05-10T04:09:54;8.20;;;6.80;;
2476;SDS011;1249;51.270;6.756;2023-05-10T04:12:19;10.80;;;7.77;;
2476;SDS011;1249;51.270;6.756;2023-05-10T04:14:45;9.03;;;7.33;;
2476;SDS011;1249;51.270;6.756;2023-05-10T04:17:10;9.53;;;7.63;;
2476;SDS011;1249;51.270;6.756;2023-05-10T04:19:36;12.30;;;8.50;;
2476;SDS011;1249;51.270;6.756;2023-05-10T04:22:02;9.00;;;6.97;;
2476;SDS011;1249;51.270;6.756;2023-05-10T04:24:28;11.00;;;8.70;;
2476;SDS011;1249;51.270;6.756;2023-05-10T04:26:53;8.73;;;7.83;;
2476;SDS011;1249;51.270;6.756;2023-05-10T04:29:19;9.70;;;7.80;;
2476;SDS011;1249;51.270;6.756;2023-05-10T04:31:45;9.30;;;7.43;;
2476;SDS011;1249;51.270;6.756;2023-05-10T04:34:11;12.90;;;8.30;;
2476;SDS011;1249;51.270;6.756;2023-05-10T04:36:36;9.63;;;7.53;;
2476;SDS011;1249;51.270;6.756;2023-05-10T04:39:03;8.97;;;7.73;;
2476;SDS011;1249;51.270;6.756;2023-05-10T04:41:28;9.93;;;7.93;;
2476;SDS011;1249;51.270;6.756;2023-05-10T04:43:54;10.50;;;9.23;;
2476;SDS011;1249;51.270;6.756;2023-05-10T04:46:20;12.20;;;9.00;;
2476;SDS011;1249;51.270;6.756;2023-05-10T04:48:46;12.60;;;9.93;;
2476;SDS011;1249;51.270;6.756;2023-05-10T04:51:11;13.67;;;9.80;;
2476;SDS011;1249;51.270;6.756;2023-05-10T04:53:37;14.30;;;9.73;;
2476;SDS011;1249;51.270;6.756;2023-05-10T04:56:03;12.33;;;10.13;;
2476;SDS011;1249;51.270;6.756;2023-05-10T04:58:28;16.23;;;10.00;;
2476;SDS011;1249;51.270;6.756;2023-05-10T05:00:54;13.13;;;10.70;;
2476;SDS011;1249;51.270;6.756;2023-05-10T05:03:20;14.20;;;10.20;;
2476;SDS011;1249;51.270;6.756;2023-05-10T05:05:45;13.30;;;10.50;;
2476;SDS011;1249;51.270;6.756;2023-05-10T05:08:11;14.80;;;11.60;;
2476;SDS011;1249;51.270;6.756;2023-05-10T05:10:36;17.23;;;11.87;;
2476;SDS011;1249;51.270;6.756;2023-05-10T05:13:02;13.20;;;10.40;;
2476;SDS011;1249;51.270;6.756;2023-05-10T05:15:30;17.80;;;11.27;;
2476;SDS011;1249;51.270;6.756;2023-05-10T05:17:56;15.13;;;11.37;;
2476;SDS011;1249;51.270;6.756;2023-05-10T05:20:22;18.20;;;11.23;;
2476;SDS011;1249;51.270;6.756;2023-05-10T05:22:47;16.70;;;11.47;;
2476;SDS011;1249;51.270;6.756;2023-05-10T05:25:13;15.80;;;11.30;;
2476;SDS011;1249;51.270;6.756;2023-05-10T05:27:40;14.93;;;12.37;;
2476;SDS011;1249;51.270;6.756;2023-05-10T05:30:05;21.23;;;12.50;;
2476;SDS011;1249;51.270;6.756;2023-05-10T05:32:31;13.83;;;11.60;;
2476;SDS011;1249;51.270;6.756;2023-05-10T05:34:57;15.60;;;11.20;;
2476;SDS011;1249;51.270;6.756;2023-05-10T05:37:23;15.87;;;11.93;;
2476;SDS011;1249;51.270;6.756;2023-05-10T05:39:49;12.63;;;10.20;;
2476;SDS011;1249;51.270;6.756;2023-05-10T05:42:15;16.50;;;9.67;;
2476;SDS011;1249;51.270;6.756;2023-05-10T05:44:42;11.80;;;9.97;;
2476;SDS011;1249;51.270;6.756;2023-05-10T05:47:08;13.80;;;9.20;;
2476;SDS011;1249;51.270;6.756;2023-05-10T05:49:34;11.30;;;9.00;;
2476;SDS011;1249;51.270;6.756;2023-05-10T05:52:00;14.17;;;9.07;;
2476;SDS011;1249;51.270;6.756;2023-05-10T05:54:26;10.23;;;8.37;;
2476;SDS011;1249;51.270;6.756;2023-05-10T05:56:59;9.67;;;7.27;;
2476;SDS011;1249;51.270;6.756;2023-05-10T05:59:25;12.10;;;9.77;;
2476;SDS011;1249;51.270;6.756;2023-05-10T06:01:51;13.37;;;8.93;;
2476;SDS011;1249;51.270;6.756;2023-05-10T06:04:17;9.93;;;8.40;;
2476;SDS011;1249;51.270;6.756;2023-05-10T06:06:43;14.83;;;9.30;;
2476;SDS011;1249;51.270;6.756;2023-05-10T06:09:09;12.77;;;9.80;;
2476;SDS011;1249;51.270;6.756;2023-05-10T06:11:35;15.17;;;9.80;;
2476;SDS011;1249;51.270;6.756;2023-05-10T06:14:01;11.23;;;9.40;;
2476;SDS011;1249;51.270;6.756;2023-05-10T06:16:28;14.90;;;10.00;;
2476;SDS011;1249;51.270;6.756;2023-05-10T06:18:54;15.97;;;10.93;;
2476;SDS011;1249;51.270;6.756;2023-05-10T06:21:20;12.30;;;9.53;;
2476;SDS011;1249;51.270;6.756;2023-05-10T06:23:46;13.40;;;9.93;;
2476;SDS011;1249;51.270;6.756;2023-05-10T06:26:11;14.43;;;10.67;;
2476;SDS011;1249;51.270;6.756;2023-05-10T06:28:37;18.57;;;12.13;;
2476;SDS011;1249;51.270;6.756;2023-05-10T06:31:05;20.27;;;12.30;;
2476;SDS011;1249;51.270;6.756;2023-05-10T06:33:31;15.73;;;11.80;;
2476;SDS011;1249;51.270;6.756;2023-05-10T06:35:57;15.00;;;11.70;;
2476;SDS011;1249;51.270;6.756;2023-05-10T06:38:23;17.60;;;11.80;;
2476;SDS011;1249;51.270;6.756;2023-05-10T06:40:49;16.67;;;12.20;;
2476;SDS011;1249;51.270;6.756;2023-05-10T06:43:14;15.93;;;11.23;;
2476;SDS011;1249;51.270;6.756;2023-05-10T06:45:40;15.30;;;12.37;;
2476;SDS011;1249;51.270;6.756;2023-05-10T06:48:06;16.53;;;12.07;;
2476;SDS011;1249;51.270;6.756;2023-05-10T06:50:32;16.97;;;11.80;;
2476;SDS011;1249;51.270;6.756;2023-05-10T06:52:58;17.63;;;11.10;;
2476;SDS011;1249;51.270;6.756;2023-05-10T06:55:24;15.67;;;11.37;;
2476;SDS011;1249;51.270;6.756;2023-05-10T06:57:50;15.47;;;10.50;;
2476;SDS011;1249;51.270;6.756;2023-05-10T07:00:16;17.97;;;11.67;;
2476;SDS011;1249;51.270;6.756;2023-05-10T07:02:42;15.40;;;9.90;;
2476;SDS011;1249;51.270;6.756;2023-05-10T07:05:08;14.43;;;10.00;;
2476;SDS011;1249;51.270;6.756;2023-05-10T07:07:34;17.93;;;11.80;;
2476;SDS011;1249;51.270;6.756;2023-05-10T07:10:00;15.87;;;11.70;;
2476;SDS011;1249;51.270;6.756;2023-05-10T07:12:25;15.10;;;10.27;;
2476;SDS011;1249;51.270;6.756;2023-05-10T07:14:51;17.30;;;12.27;;
2476;SDS011;1249;51.270;6.756;2023-05-10T07:17:17;17.50;;;11.13;;
2476;SDS011;1249;51.270;6.756;2023-05-10T07:19:42;15.17;;;10.97;;
2476;SDS011;1249;51.270;6.756;2023-05-10T07:22:08;17.37;;;10.13;;
2476;SDS011;1249;51.270;6.756;2023-05-10T07:24:34;14.13;;;10.70;;
2476;SDS011;1249;51.270;6.756;2023-05-10T07:26:59;14.67;;;11.67;;
2476;SDS011;1249;51.270;6.756;2023-05-10T07:29:25;16.10;;;10.97;;
2476;SDS011;1249;51.270;6.756;2023-05-10T07:31:51;13.77;;;9.77;;
2476;SDS011;1249;51.270;6.756;2023-05-10T07:34:16;11.43;;;8.80;;
2476;SDS011;1249;51.270;6.756;2023-05-10T07:36:42;13.80;;;9.33;;
2476;SDS011;1249;51.270;6.756;2023-05-10T07:39:07;14.43;;;9.57;;
2476;SDS011;1249;51.270;6.756;2023-05-10T07:41:33;18.20;;;11.10;;
2476;SDS011;1249;51.270;6.756;2023-05-10T07:43:59;16.67;;;9.40;;
2476;SDS011;1249;51.270;6.756;2023-05-10T07:46:24;15.77;;;10.87;;
2476;SDS011;1249;51.270;6.756;2023-05-10T07:48:50;12.93;;;10.00;;
2476;SDS011;1249;51.270;6.756;2023-05-10T07:51:16;16.63;;;11.03;;
2476;SDS011;1249;51.270;6.756;2023-05-10T07:53:41;16.33;;;10.50;;
2476;SDS011;1249;51.270;6.756;2023-05-10T07:56:24;19.27;;;11.70;;
2476;SDS011;1249;51.270;6.756;2023-05-10T07:58:52;19.67;;;11.97;;
2476;SDS011;1249;51.270;6.756;2023-05-10T08:01:18;21.57;;;12.67;;
2476;SDS011;1249;51.270;6.756;2023-05-10T08:03:43;19.40;;;13.63;;
2476;SDS011;1249;51.270;6.756;2023-05-10T08:06:09;22.93;;;14.27;;
2476;SDS011;1249;51.270;6.756;2023-05-10T08:08:35;23.40;;;14.73;;
2476;SDS011;1249;51.270;6.756;2023-05-10T08:11:00;26.00;;;14.97;;
2476;SDS011;1249;51.270;6.756;2023-05-10T08:13:26;23.03;;;15.13;;
2476;SDS011;1249;51.270;6.756;2023-05-10T08:15:52;31.73;;;17.83;;
2476;SDS011;1249;51.270;6.756;2023-05-10T08:18:21;24.93;;;16.67;;
2476;SDS011;1249;51.270;6.756;2023-05-10T08:20:46;23.57;;;15.30;;
2476;SDS011;1249;51.270;6.756;2023-05-10T08:23:12;27.90;;;16.80;;
2476;SDS011;1249;51.270;6.756;2023-05-10T08:25:38;29.27;;;17.77;;
2476;SDS011;1249;51.270;6.756;2023-05-10T08:28:04;23.97;;;16.27;;
2476;SDS011;1249;51.270;6.756;2023-05-10T08:30:29;26.00;;;17.67;;
2476;SDS011;1249;51.270;6.756;2023-05-10T08:32:55;30.13;;;18.03;;
2476;SDS011;1249;51.270;6.756;2023-05-10T08:35:20;22.03;;;16.03;;
2476;SDS011;1249;51.270;6.756;2023-05-10T08:37:46;30.97;;;18.20;;
2476;SDS011;1249;51.270;6.756;2023-05-10T08:40:11;26.77;;;17.33;;
2476;SDS011;1249;51.270;6.756;2023-05-10T08:42:40;31.03;;;18.40;;
2476;SDS011;1249;51.270;6.756;2023-05-10T08:45:10;25.60;;;17.67;;
2476;SDS011;1249;51.270;6.756;2023-05-10T08:47:37;22.23;;;15.90;;
2476;SDS011;1249;51.270;6.756;2023-05-10T08:50:03;23.33;;;15.47;;
2476;SDS011;1249;51.270;6.756;2023-05-10T08:52:29;25.73;;;16.50;;
2476;SDS011;1249;51.270;6.756;2023-05-10T08:54:56;21.43;;;14.40;;
2476;SDS011;1249;51.270;6.756;2023-05-10T08:57:22;21.80;;;13.43;;
2476;SDS011;1249;51.270;6.756;2023-05-10T08:59:48;21.40;;;14.90;;
2476;SDS011;1249;51.270;6.756;2023-05-10T09:02:14;19.10;;;13.17;;
2476;SDS011;1249;51.270;6.756;2023-05-10T09:04:40;18.73;;;12.80;;
2476;SDS011;1249;51.270;6.756;2023-05-10T09:07:06;18.47;;;13.60;;
2476;SDS011;1249;51.270;6.756;2023-05-10T09:09:32;20.43;;;11.80;;
2476;SDS011;1249;51.270;6.756;2023-05-10T09:11:59;19.37;;;12.87;;
2476;SDS011;1249;51.270;6.756;2023-05-10T09:14:25;17.50;;;12.47;;
2476;SDS011;1249;51.270;6.756;2023-05-10T09:16:51;14.97;;;11.13;;
2476;SDS011;1249;51.270;6.756;2023-05-10T09:19:20;16.00;;;11.10;;
2476;SDS011;1249;51.270;6.756;2023-05-10T09:21:45;13.17;;;9.73;;
2476;SDS011;1249;51.270;6.756;2023-05-10T09:24:11;16.17;;;11.13;;
2476;SDS011;1249;51.270;6.756;2023-05-10T09:26:45;13.47;;;11.00;;
2476;SDS011;1249;51.270;6.756;2023-05-10T09:29:14;15.17;;;11.17;;
2476;SDS011;1249;51.270;6.756;2023-05-10T09:31:44;14.87;;;10.97;;
2476;SDS011;1249;51.270;6.756;2023-05-10T09:34:11;12.93;;;9.30;;
2476;SDS011;1249;51.270;6.756;2023-05-10T09:36:54;9.60;;;8.60;;
2476;SDS011;1249;51.270;6.756;2023-05-10T09:39:22;10.40;;;9.07;;
2476;SDS011;1249;51.270;6.756;2023-05-10T09:42:05;13.60;;;7.83;;
2476;SDS011;1249;51.270;6.756;2023-05-10T09:44:32;10.50;;;8.50;;
2476;SDS011;1249;51.270;6.756;2023-05-10T09:46:59;12.33;;;8.60;;
2476;SDS011;1249;51.270;6.756;2023-05-10T09:49:28;13.03;;;8.43;;
2476;SDS011;1249;51.270;6.756;2023-05-10T09:52:01;9.63;;;7.80;;
2476;SDS011;1249;51.270;6.756;2023-05-10T09:54:28;11.40;;;9.30;;
2476;SDS011;1249;51.270;6.756;2023-05-10T09:56:53;10.53;;;8.30;;
2476;SDS011;1249;51.270;6.756;2023-05-10T09:59:19;11.00;;;8.03;;
2476;SDS011;1249;51.270;6.756;2023-05-10T10:01:51;14.10;;;8.67;;
2476;SDS011;1249;51.270;6.756;2023-05-10T10:04:21;10.70;;;8.97;;
2476;SDS011;1249;51.270;6.756;2023-05-10T10:06:47;10.03;;;8.83;;
2476;SDS011;1249;51.270;6.756;2023-05-10T10:09:29;12.73;;;9.43;;
2476;SDS011;1249;51.270;6.756;2023-05-10T10:11:55;10.93;;;9.03;;
2476;SDS011;1249;51.270;6.756;2023-05-10T10:14:22;14.83;;;9.37;;
2476;SDS011;1249;51.270;6.756;2023-05-10T10:16:49;10.80;;;9.03;;
2476;SDS011;1249;51.270;6.756;2023-05-10T10:19:15;11.70;;;9.33;;
2476;SDS011;1249;51.270;6.756;2023-05-10T10:21:41;13.20;;;10.57;;
2476;SDS011;1249;51.270;6.756;2023-05-10T10:24:07;11.77;;;9.50;;
2476;SDS011;1249;51.270;6.756;2023-05-10T10:26:36;12.20;;;9.67;;
2476;SDS011;1249;51.270;6.756;2023-05-10T10:34:53;13.67;;;9.97;;
2476;SDS011;1249;51.270;6.756;2023-05-10T10:37:21;15.37;;;9.80;;
2476;SDS011;1249;51.270;6.756;2023-05-10T10:39:48;14.40;;;9.27;;
2476;SDS011;1249;51.270;6.756;2023-05-10T10:42:14;12.40;;;9.70;;
2476;SDS011;1249;51.270;6.756;2023-05-10T10:45:13;13.00;;;10.03;;
2476;SDS011;1249;51.270;6.756;2023-05-10T10:47:38;12.87;;;9.27;;
2476;SDS011;1249;51.270;6.756;2023-05-10T10:50:05;11.93;;;8.80;;
2476;SDS011;1249;51.270;6.756;2023-05-10T10:55:10;12.03;;;9.10;;
2476;SDS011;1249;51.270;6.756;2023-05-10T11:00:28;11.43;;;9.17;;
2476;SDS011;1249;51.270;6.756;2023-05-10T11:02:59;14.60;;;9.70;;
2476;SDS011;1249;51.270;6.756;2023-05-10T11:08:12;13.60;;;9.37;;
2476;SDS011;1249;51.270;6.756;2023-05-10T11:13:29;17.17;;;10.77;;
2476;SDS011;1249;51.270;6.756;2023-05-10T11:18:40;12.87;;;11.17;;
2476;SDS011;1249;51.270;6.756;2023-05-10T11:21:06;12.57;;;11.20;;
2476;SDS011;1249;51.270;6.756;2023-05-10T11:26:16;16.60;;;12.07;;
2476;SDS011;1249;51.270;6.756;2023-05-10T11:28:47;13.87;;;10.57;;
2476;SDS011;1249;51.270;6.756;2023-05-10T11:31:13;15.17;;;12.13;;
2476;SDS011;1249;51.270;6.756;2023-05-10T11:33:44;17.20;;;15.40;;
2476;SDS011;1249;51.270;6.756;2023-05-10T11:36:10;18.53;;;13.80;;
2476;SDS011;1249;51.270;6.756;2023-05-10T11:38:37;17.40;;;13.07;;
2476;SDS011;1249;51.270;6.756;2023-05-10T11:41:02;19.77;;;11.67;;
2476;SDS011;1249;51.270;6.756;2023-05-10T11:43:28;15.20;;;12.97;;
2476;SDS011;1249;51.270;6.756;2023-05-10T11:45:55;17.30;;;13.00;;
2476;SDS011;1249;51.270;6.756;2023-05-10T11:48:21;16.00;;;12.23;;
2476;SDS011;1249;51.270;6.756;2023-05-10T11:50:48;14.90;;;11.63;;
2476;SDS011;1249;51.270;6.756;2023-05-10T11:53:15;14.93;;;10.70;;
2476;SDS011;1249;51.270;6.756;2023-05-10T11:55:40;14.87;;;10.80;;
2476;SDS011;1249;51.270;6.756;2023-05-10T11:58:06;12.20;;;10.50;;
2476;SDS011;1249;51.270;6.756;2023-05-10T12:00:31;11.37;;;10.10;;
2476;SDS011;1249;51.270;6.756;2023-05-10T12:02:57;14.10;;;10.40;;
2476;SDS011;1249;51.270;6.756;2023-05-10T12:05:23;11.00;;;9.80;;
2476;SDS011;1249;51.270;6.756;2023-05-10T12:07:49;12.17;;;10.87;;
2476;SDS011;1249;51.270;6.756;2023-05-10T12:10:15;14.47;;;10.10;;
2476;SDS011;1249;51.270;6.756;2023-05-10T12:12:43;12.57;;;10.63;;
2476;SDS011;1249;51.270;6.756;2023-05-10T12:15:18;12.70;;;9.97;;
2476;SDS011;1249;51.270;6.756;2023-05-10T12:17:48;11.97;;;9.43;;
2476;SDS011;1249;51.270;6.756;2023-05-10T12:20:14;10.47;;;9.47;;
2476;SDS011;1249;51.270;6.756;2023-05-10T12:22:43;9.23;;;8.30;;
2476;SDS011;1249;51.270;6.756;2023-05-10T12:25:19;9.40;;;8.40;;
2476;SDS011;1249;51.270;6.756;2023-05-10T12:27:53;10.13;;;8.47;;
2476;SDS011;1249;51.270;6.756;2023-05-10T12:30:24;11.87;;;10.00;;
2476;SDS011;1249;51.270;6.756;2023-05-10T12:32:51;11.73;;;9.90;;
2476;SDS011;1249;51.270;6.756;2023-05-10T12:35:17;12.17;;;10.30;;
2476;SDS011;1249;51.270;6.756;2023-05-10T12:37:48;18.80;;;8.93;;
2476;SDS011;1249;51.270;6.756;2023-05-10T12:40:15;10.43;;;9.43;;
2476;SDS011;1249;51.270;6.756;2023-05-10T12:42:40;11.20;;;9.70;;
2476;SDS011;1249;51.270;6.756;2023-05-10T12:45:06;13.73;;;10.80;;
2476;SDS011;1249;51.270;6.756;2023-05-10T12:47:33;13.43;;;11.80;;
2476;SDS011;1249;51.270;6.756;2023-05-10T12:49:59;12.47;;;10.60;;
2476;SDS011;1249;51.270;6.756;2023-05-10T12:52:26;14.10;;;10.23;;
2476;SDS011;1249;51.270;6.756;2023-05-10T12:54:52;13.07;;;10.37;;
2476;SDS011;1249;51.270;6.756;2023-05-10T12:57:18;10.67;;;9.40;;
2476;SDS011;1249;51.270;6.756;2023-05-10T12:59:47;12.47;;;10.30;;
2476;SDS011;1249;51.270;6.756;2023-05-10T13:02:12;12.00;;;10.80;;
2476;SDS011;1249;51.270;6.756;2023-05-10T13:04:39;12.57;;;9.93;;
2476;SDS011;1249;51.270;6.756;2023-05-10T13:07:06;13.20;;;10.93;;
2476;SDS011;1249;51.270;6.756;2023-05-10T13:09:31;13.10;;;10.37;;
2476;SDS011;1249;51.270;6.756;2023-05-10T13:11:57;12.47;;;11.10;;
2476;SDS011;1249;51.270;6.756;2023-05-10T13:14:23;12.87;;;11.13;;
2476;SDS011;1249;51.270;6.756;2023-05-10T13:16:50;15.03;;;11.33;;
2476;SDS011;1249;51.270;6.756;2023-05-10T13:19:15;13.67;;;11.70;;
2476;SDS011;1249;51.270;6.756;2023-05-10T13:21:42;13.40;;;11.17;;
2476;SDS011;1249;51.270;6.756;2023-05-10T13:24:09;14.90;;;13.00;;
2476;SDS011;1249;51.270;6.756;2023-05-10T13:26:35;11.47;;;10.27;;
2476;SDS011;1249;51.270;6.756;2023-05-10T13:29:01;12.53;;;11.07;;
2476;SDS011;1249;51.270;6.756;2023-05-10T13:31:28;13.17;;;11.83;;
2476;SDS011;1249;51.270;6.756;2023-05-10T13:33:53;15.50;;;12.77;;
2476;SDS011;1249;51.270;6.756;2023-05-10T13:36:19;15.83;;;11.50;;
2476;SDS011;1249;51.270;6.756;2023-05-10T13:38:45;16.90;;;12.40;;
2476;SDS011;1249;51.270;6.756;2023-05-10T13:41:10;16.70;;;11.07;;
2476;SDS011;1249;51.270;6.756;2023-05-10T13:43:36;12.23;;;10.90;;
2476;SDS011;1249;51.270;6.756;2023-05-10T13:46:01;14.40;;;12.43;;
2476;SDS011;1249;51.270;6.756;2023-05-10T13:48:27;14.07;;;11.20;;
2476;SDS011;1249;51.270;6.756;2023-05-10T13:50:53;16.57;;;13.00;;
2476;SDS011;1249;51.270;6.756;2023-05-10T13:53:19;12.77;;;11.47;;
2476;SDS011;1249;51.270;6.756;2023-05-10T13:55:44;12.20;;;10.90;;
2476;SDS011;1249;51.270;6.756;2023-05-10T13:58:10;15.30;;;11.10;;
2476;SDS011;1249;51.270;6.756;2023-05-10T14:00:35;15.50;;;11.30;;
2476;SDS011;1249;51.270;6.756;2023-05-10T14:03:01;15.17;;;11.47;;
2476;SDS011;1249;51.270;6.756;2023-05-10T14:05:27;13.40;;;11.07;;
2476;SDS011;1249;51.270;6.756;2023-05-10T14:07:52;13.77;;;10.83;;
2476;SDS011;1249;51.270;6.756;2023-05-10T14:10:18;11.63;;;9.90;;
2476;SDS011;1249;51.270;6.756;2023-05-10T14:12:44;12.50;;;10.07;;
2476;SDS011;1249;51.270;6.756;2023-05-10T14:15:10;11.40;;;10.20;;
2476;SDS011;1249;51.270;6.756;2023-05-10T14:17:36;12.83;;;10.20;;
2476;SDS011;1249;51.270;6.756;2023-05-10T14:20:02;11.07;;;9.80;;
2476;SDS011;1249;51.270;6.756;2023-05-10T14:22:28;13.03;;;9.73;;
2476;SDS011;1249;51.270;6.756;2023-05-10T14:24:54;9.83;;;8.90;;
2476;SDS011;1249;51.270;6.756;2023-05-10T14:27:20;11.60;;;10.37;;
2476;SDS011;1249;51.270;6.756;2023-05-10T14:29:46;10.97;;;9.97;;
2476;SDS011;1249;51.270;6.756;2023-05-10T14:32:12;11.50;;;10.37;;
2476;SDS011;1249;51.270;6.756;2023-05-10T14:34:38;12.97;;;10.03;;
2476;SDS011;1249;51.270;6.756;2023-05-10T14:37:04;11.27;;;9.70;;
2476;SDS011;1249;51.270;6.756;2023-05-10T14:39:29;10.77;;;9.53;;
2476;SDS011;1249;51.270;6.756;2023-05-10T14:41:55;9.80;;;8.80;;
2476;SDS011;1249;51.270;6.756;2023-05-10T14:44:21;20.17;;;18.17;;
2476;SDS011;1249;51.270;6.756;2023-05-10T14:46:47;12.67;;;11.00;;
2476;SDS011;1249;51.270;6.756;2023-05-10T14:49:13;11.83;;;10.03;;
2476;SDS011;1249;51.270;6.756;2023-05-10T14:51:38;26.67;;;23.13;;
2476;SDS011;1249;51.270;6.756;2023-05-10T14:54:04;11.20;;;10.10;;
2476;SDS011;1249;51.270;6.756;2023-05-10T14:56:30;8.40;;;7.20;;
2476;SDS011;1249;51.270;6.756;2023-05-10T14:58:56;9.07;;;8.17;;
2476;SDS011;1249;51.270;6.756;2023-05-10T15:01:21;11.87;;;10.70;;
2476;SDS011;1249;51.270;6.756;2023-05-10T15:03:47;11.90;;;10.80;;
2476;SDS011;1249;51.270;6.756;2023-05-10T15:06:14;22.37;;;20.40;;
2476;SDS011;1249;51.270;6.756;2023-05-10T15:08:41;15.13;;;13.83;;
2476;SDS011;1249;51.270;6.756;2023-05-10T15:11:06;10.30;;;9.47;;
2476;SDS011;1249;51.270;6.756;2023-05-10T15:13:32;11.57;;;10.57;;
2476;SDS011;1249;51.270;6.756;2023-05-10T15:15:57;13.43;;;12.53;;
2476;SDS011;1249;51.270;6.756;2023-05-10T15:18:23;6.43;;;5.83;;
2476;SDS011;1249;51.270;6.756;2023-05-10T15:20:48;8.87;;;6.50;;
2476;SDS011;1249;51.270;6.756;2023-05-10T15:23:14;6.23;;;5.63;;
2476;SDS011;1249;51.270;6.756;2023-05-10T15:25:40;7.63;;;6.67;;
2476;SDS011;1249;51.270;6.756;2023-05-10T15:28:05;7.23;;;6.53;;
2476;SDS011;1249;51.270;6.756;2023-05-10T15:30:31;8.20;;;7.50;;
2476;SDS011;1249;51.270;6.756;2023-05-10T15:32:57;8.30;;;7.20;;
2476;SDS011;1249;51.270;6.756;2023-05-10T15:35:22;8.70;;;7.77;;
2476;SDS011;1249;51.270;6.756;2023-05-10T15:37:48;8.53;;;7.03;;